sensor_id;sensor_type;location;lat;lon;timestamp;temperature;humidity
26537;DHT22;14204;51.262;5.488;2024-01-15T00:01:59;3.30;99.90
26537;DHT22;14204;51.262;5.488;2024-01-15T00:04:25;3.30;99.90
26537;DHT22;14204;51.262;5.488;2024-01-15T00:06:51;3.30;99.90
26537;DHT22;14204;51.262;5.488;2024-01-15T00:09:16;3.20;99.90
26537;DHT22;14204;51.262;5.488;2024-01-15T00:11:42;3.20;99.90
26537;DHT22;14204;51.262;5.488;2024-01-15T00:14:08;3.20;99.90
26537;DHT22;14204;51.262;5.488;2024-01-15T00:16:34;3.20;99.90
26537;DHT22;14204;51.262;5.488;2024-01-15T00:19:00;3.20;99.90
26537;DHT22;14204;51.262;5.488;2024-01-15T00:21:25;3.30;99.90
26537;DHT22;14204;51.262;5.488;2024-01-15T00:23:51;3.30;99.90
26537;DHT22;14204;51.262;5.488;2024-01-15T00:26:16;3.30;99.90
26537;DHT22;14204;51.262;5.488;2024-01-15T00:28:42;3.30;99.90
26537;DHT22;14204;51.262;5.488;2024-01-15T00:31:08;3.30;99.90
26537;DHT22;14204;51.262;5.488;2024-01-15T00:33:34;3.30;99.90
26537;DHT22;14204;51.262;5.488;2024-01-15T00:35:59;3.30;99.90
26537;DHT22;14204;51.262;5.488;2024-01-15T00:38:25;3.40;99.90
26537;DHT22;14204;51.262;5.488;2024-01-15T00:40:51;3.30;99.90
26537;DHT22;14204;51.262;5.488;2024-01-15T00:43:16;3.30;99.90
26537;DHT22;14204;51.262;5.488;2024-01-15T00:45:44;3.20;99.90
26537;DHT22;14204;51.262;5.488;2024-01-15T00:48:10;3.20;99.90
26537;DHT22;14204;51.262;5.488;2024-01-15T00:50:36;3.20;99.90
26537;DHT22;14204;51.262;5.488;2024-01-15T00:53:01;3.10;99.90
26537;DHT22;14204;51.262;5.488;2024-01-15T00:55:28;3.20;99.90
26537;DHT22;14204;51.262;5.488;2024-01-15T00:57:54;3.20;99.90
26537;DHT22;14204;51.262;5.488;2024-01-15T01:00:20;3.10;99.90
26537;DHT22;14204;51.262;5.488;2024-01-15T01:02:46;3.20;99.90
26537;DHT22;14204;51.262;5.488;2024-01-15T01:05:12;3.10;99.90
26537;DHT22;14204;51.262;5.488;2024-01-15T01:07:37;3.20;99.90
26537;DHT22;14204;51.262;5.488;2024-01-15T01:10:04;3.10;99.90
26537;DHT22;14204;51.262;5.488;2024-01-15T01:12:29;3.10;99.90
26537;DHT22;14204;51.262;5.488;2024-01-15T01:14:56;3.10;99.90
26537;DHT22;14204;51.262;5.488;2024-01-15T01:17:22;3.10;99.90
26537;DHT22;14204;51.262;5.488;2024-01-15T01:19:47;3.10;99.90
26537;DHT22;14204;51.262;5.488;2024-01-15T01:22:13;3.20;99.90
26537;DHT22;14204;51.262;5.488;2024-01-15T01:24:39;3.20;99.90
26537;DHT22;14204;51.262;5.488;2024-01-15T01:27:04;3.20;99.90
26537;DHT22;14204;51.262;5.488;2024-01-15T01:29:30;3.20;99.90
26537;DHT22;14204;51.262;5.488;2024-01-15T01:31:56;3.10;99.90
26537;DHT22;14204;51.262;5.488;2024-01-15T01:34:22;3.10;99.90
26537;DHT22;14204;51.262;5.488;2024-01-15T01:36:47;3.20;99.90
26537;DHT22;14204;51.262;5.488;2024-01-15T01:39:13;3.20;99.90
26537;DHT22;14204;51.262;5.488;2024-01-15T01:41:39;3.10;99.90
26537;DHT22;14204;51.262;5.488;2024-01-15T01:44:06;3.20;99.90
26537;DHT22;14204;51.262;5.488;2024-01-15T01:46:32;3.20;99.90
26537;DHT22;14204;51.262;5.488;2024-01-15T01:48:59;3.20;99.90
26537;DHT22;14204;51.262;5.488;2024-01-15T01:51:31;3.20;99.90
26537;DHT22;14204;51.262;5.488;2024-01-15T01:53:57;3.10;99.90
26537;DHT22;14204;51.262;5.488;2024-01-15T01:56:24;3.20;99.90
26537;DHT22;14204;51.262;5.488;2024-01-15T01:58:49;3.20;99.90
26537;DHT22;14204;51.262;5.488;2024-01-15T02:01:15;3.20;99.90
26537;DHT22;14204;51.262;5.488;2024-01-15T02:03:42;3.30;99.90
26537;DHT22;14204;51.262;5.488;2024-01-15T02:06:08;3.30;99.90
26537;DHT22;14204;51.262;5.488;2024-01-15T02:08:34;3.20;99.90
26537;DHT22;14204;51.262;5.488;2024-01-15T02:11:00;3.30;99.90
26537;DHT22;14204;51.262;5.488;2024-01-15T02:13:26;3.20;99.90
26537;DHT22;14204;51.262;5.488;2024-01-15T02:15:52;3.30;99.90
26537;DHT22;14204;51.262;5.488;2024-01-15T02:18:17;3.20;99.90
26537;DHT22;14204;51.262;5.488;2024-01-15T02:20:43;3.30;99.90
26537;DHT22;14204;51.262;5.488;2024-01-15T02:23:13;3.30;99.90
26537;DHT22;14204;51.262;5.488;2024-01-15T02:25:41;3.30;99.90
26537;DHT22;14204;51.262;5.488;2024-01-15T02:28:11;3.30;99.90
26537;DHT22;14204;51.262;5.488;2024-01-15T02:30:38;3.40;99.90
26537;DHT22;14204;51.262;5.488;2024-01-15T02:33:05;3.30;99.90
26537;DHT22;14204;51.262;5.488;2024-01-15T02:35:31;3.40;99.90
26537;DHT22;14204;51.262;5.488;2024-01-15T02:37:56;3.30;99.90
26537;DHT22;14204;51.262;5.488;2024-01-15T02:40:22;3.30;99.90
26537;DHT22;14204;51.262;5.488;2024-01-15T02:42:48;3.40;99.90
26537;DHT22;14204;51.262;5.488;2024-01-15T02:45:14;3.40;99.90
26537;DHT22;14204;51.262;5.488;2024-01-15T02:47:39;3.30;99.90
26537;DHT22;14204;51.262;5.488;2024-01-15T02:50:05;3.40;99.90
26537;DHT22;14204;51.262;5.488;2024-01-15T02:52:32;3.40;99.90
26537;DHT22;14204;51.262;5.488;2024-01-15T02:54:57;3.30;99.90
26537;DHT22;14204;51.262;5.488;2024-01-15T02:57:23;3.30;99.90
26537;DHT22;14204;51.262;5.488;2024-01-15T02:59:49;3.30;99.90
26537;DHT22;14204;51.262;5.488;2024-01-15T03:02:15;3.30;99.90
26537;DHT22;14204;51.262;5.488;2024-01-15T03:04:44;3.30;99.90
26537;DHT22;14204;51.262;5.488;2024-01-15T03:07:10;3.30;99.90
26537;DHT22;14204;51.262;5.488;2024-01-15T03:09:36;3.20;99.90
26537;DHT22;14204;51.262;5.488;2024-01-15T03:12:01;3.20;99.90
26537;DHT22;14204;51.262;5.488;2024-01-15T03:14:27;3.20;99.90
26537;DHT22;14204;51.262;5.488;2024-01-15T03:16:53;3.20;99.90
26537;DHT22;14204;51.262;5.488;2024-01-15T03:19:19;3.20;99.90
26537;DHT22;14204;51.262;5.488;2024-01-15T03:21:45;3.20;99.90
26537;DHT22;14204;51.262;5.488;2024-01-15T03:24:11;3.20;99.90
26537;DHT22;14204;51.262;5.488;2024-01-15T03:26:36;3.10;99.90
26537;DHT22;14204;51.262;5.488;2024-01-15T03:29:02;3.10;99.90
26537;DHT22;14204;51.262;5.488;2024-01-15T03:31:28;3.10;99.90
26537;DHT22;14204;51.262;5.488;2024-01-15T03:33:53;3.10;99.90
26537;DHT22;14204;51.262;5.488;2024-01-15T03:36:19;3.10;99.90
26537;DHT22;14204;51.262;5.488;2024-01-15T03:38:45;3.10;99.90
26537;DHT22;14204;51.262;5.488;2024-01-15T03:41:10;3.10;99.90
26537;DHT22;14204;51.262;5.488;2024-01-15T03:43:36;3.20;99.90
26537;DHT22;14204;51.262;5.488;2024-01-15T03:46:02;3.20;99.90
26537;DHT22;14204;51.262;5.488;2024-01-15T03:48:28;3.30;99.90
26537;DHT22;14204;51.262;5.488;2024-01-15T03:50:54;3.30;99.90
26537;DHT22;14204;51.262;5.488;2024-01-15T03:53:19;3.30;99.90
26537;DHT22;14204;51.262;5.488;2024-01-15T03:55:45;3.30;99.90
26537;DHT22;14204;51.262;5.488;2024-01-15T03:58:11;3.20;99.90
26537;DHT22;14204;51.262;5.488;2024-01-15T04:00:36;3.20;99.90
26537;DHT22;14204;51.262;5.488;2024-01-15T04:03:02;3.20;99.90
26537;DHT22;14204;51.262;5.488;2024-01-15T04:05:28;3.20;99.90
26537;DHT22;14204;51.262;5.488;2024-01-15T04:07:54;3.30;99.90
26537;DHT22;14204;51.262;5.488;2024-01-15T04:10:19;3.20;99.90
26537;DHT22;14204;51.262;5.488;2024-01-15T04:12:45;3.30;99.90
26537;DHT22;14204;51.262;5.488;2024-01-15T04:15:12;3.20;99.90
26537;DHT22;14204;51.262;5.488;2024-01-15T04:17:38;3.20;99.90
26537;DHT22;14204;51.262;5.488;2024-01-15T04:20:04;3.20;99.90
26537;DHT22;14204;51.262;5.488;2024-01-15T04:22:30;3.20;99.90
26537;DHT22;14204;51.262;5.488;2024-01-15T04:24:56;3.10;99.90
26537;DHT22;14204;51.262;5.488;2024-01-15T04:27:21;3.30;99.90
26537;DHT22;14204;51.262;5.488;2024-01-15T04:29:47;3.20;99.90
26537;DHT22;14204;51.262;5.488;2024-01-15T04:32:13;3.30;99.90
26537;DHT22;14204;51.262;5.488;2024-01-15T04:34:39;3.30;99.90
26537;DHT22;14204;51.262;5.488;2024-01-15T04:37:04;3.30;99.90
26537;DHT22;14204;51.262;5.488;2024-01-15T04:39:30;3.40;99.90
26537;DHT22;14204;51.262;5.488;2024-01-15T04:41:56;3.40;99.90
26537;DHT22;14204;51.262;5.488;2024-01-15T04:44:22;3.40;99.90
26537;DHT22;14204;51.262;5.488;2024-01-15T04:46:48;3.50;99.90
26537;DHT22;14204;51.262;5.488;2024-01-15T04:49:13;3.50;99.90
26537;DHT22;14204;51.262;5.488;2024-01-15T04:51:39;3.50;99.90
26537;DHT22;14204;51.262;5.488;2024-01-15T04:54:05;3.60;99.90
26537;DHT22;14204;51.262;5.488;2024-01-15T04:56:30;3.60;99.90
26537;DHT22;14204;51.262;5.488;2024-01-15T04:58:56;3.60;99.90
26537;DHT22;14204;51.262;5.488;2024-01-15T05:01:22;3.50;99.90
26537;DHT22;14204;51.262;5.488;2024-01-15T05:03:47;3.50;99.90
26537;DHT22;14204;51.262;5.488;2024-01-15T05:06:14;3.50;99.90
26537;DHT22;14204;51.262;5.488;2024-01-15T05:08:40;3.50;99.90
26537;DHT22;14204;51.262;5.488;2024-01-15T05:11:05;3.40;99.90
26537;DHT22;14204;51.262;5.488;2024-01-15T05:13:31;3.40;99.90
26537;DHT22;14204;51.262;5.488;2024-01-15T05:15:57;3.40;99.90
26537;DHT22;14204;51.262;5.488;2024-01-15T05:18:22;3.40;99.90
26537;DHT22;14204;51.262;5.488;2024-01-15T05:20:48;3.40;99.90
26537;DHT22;14204;51.262;5.488;2024-01-15T05:23:14;3.40;99.90
26537;DHT22;14204;51.262;5.488;2024-01-15T05:25:39;3.40;99.90
26537;DHT22;14204;51.262;5.488;2024-01-15T05:28:05;3.40;99.90
26537;DHT22;14204;51.262;5.488;2024-01-15T05:30:31;3.40;99.90
26537;DHT22;14204;51.262;5.488;2024-01-15T05:32:57;3.50;99.90
26537;DHT22;14204;51.262;5.488;2024-01-15T05:35:23;3.50;99.90
26537;DHT22;14204;51.262;5.488;2024-01-15T05:37:48;3.50;99.90
26537;DHT22;14204;51.262;5.488;2024-01-15T05:40:14;3.50;99.90
26537;DHT22;14204;51.262;5.488;2024-01-15T05:42:41;3.50;99.90
26537;DHT22;14204;51.262;5.488;2024-01-15T05:45:07;3.50;99.90
26537;DHT22;14204;51.262;5.488;2024-01-15T05:47:33;3.40;99.90
26537;DHT22;14204;51.262;5.488;2024-01-15T05:50:01;3.30;99.90
26537;DHT22;14204;51.262;5.488;2024-01-15T05:52:26;3.30;99.90
26537;DHT22;14204;51.262;5.488;2024-01-15T05:54:52;3.30;99.90
26537;DHT22;14204;51.262;5.488;2024-01-15T05:57:18;3.20;99.90
26537;DHT22;14204;51.262;5.488;2024-01-15T05:59:44;3.20;99.90
26537;DHT22;14204;51.262;5.488;2024-01-15T06:02:10;3.20;99.90
26537;DHT22;14204;51.262;5.488;2024-01-15T06:04:37;3.20;99.90
26537;DHT22;14204;51.262;5.488;2024-01-15T06:07:02;3.30;99.90
26537;DHT22;14204;51.262;5.488;2024-01-15T06:09:28;3.40;99.90
26537;DHT22;14204;51.262;5.488;2024-01-15T06:11:55;3.30;99.90
26537;DHT22;14204;51.262;5.488;2024-01-15T06:14:20;3.30;99.90
26537;DHT22;14204;51.262;5.488;2024-01-15T06:16:46;3.30;99.90
26537;DHT22;14204;51.262;5.488;2024-01-15T06:19:12;3.30;99.90
26537;DHT22;14204;51.262;5.488;2024-01-15T06:21:38;3.20;99.90
26537;DHT22;14204;51.262;5.488;2024-01-15T06:24:04;3.20;99.90
26537;DHT22;14204;51.262;5.488;2024-01-15T06:26:29;3.30;99.90
26537;DHT22;14204;51.262;5.488;2024-01-15T06:28:55;3.30;99.90
26537;DHT22;14204;51.262;5.488;2024-01-15T06:31:21;3.30;99.90
26537;DHT22;14204;51.262;5.488;2024-01-15T06:33:47;3.20;99.90
26537;DHT22;14204;51.262;5.488;2024-01-15T06:36:14;3.20;99.90
26537;DHT22;14204;51.262;5.488;2024-01-15T06:38:43;3.20;99.90
26537;DHT22;14204;51.262;5.488;2024-01-15T06:41:08;3.10;99.90
26537;DHT22;14204;51.262;5.488;2024-01-15T06:43:34;3.00;99.90
26537;DHT22;14204;51.262;5.488;2024-01-15T06:45:59;3.10;99.90
26537;DHT22;14204;51.262;5.488;2024-01-15T06:48:25;3.10;99.90
26537;DHT22;14204;51.262;5.488;2024-01-15T06:50:51;3.10;99.90
26537;DHT22;14204;51.262;5.488;2024-01-15T06:53:16;3.00;99.90
26537;DHT22;14204;51.262;5.488;2024-01-15T06:55:42;3.10;99.90
26537;DHT22;14204;51.262;5.488;2024-01-15T06:58:08;3.10;99.90
26537;DHT22;14204;51.262;5.488;2024-01-15T07:00:34;3.10;99.90
26537;DHT22;14204;51.262;5.488;2024-01-15T07:02:59;3.10;99.90
26537;DHT22;14204;51.262;5.488;2024-01-15T07:05:25;3.10;99.90
26537;DHT22;14204;51.262;5.488;2024-01-15T07:07:51;3.10;99.90
26537;DHT22;14204;51.262;5.488;2024-01-15T07:10:17;3.00;99.90
26537;DHT22;14204;51.262;5.488;2024-01-15T07:12:43;3.10;99.90
26537;DHT22;14204;51.262;5.488;2024-01-15T07:15:10;3.10;99.90
26537;DHT22;14204;51.262;5.488;2024-01-15T07:17:36;3.10;99.90
26537;DHT22;14204;51.262;5.488;2024-01-15T07:20:06;3.20;99.90
26537;DHT22;14204;51.262;5.488;2024-01-15T07:22:35;3.00;99.90
26537;DHT22;14204;51.262;5.488;2024-01-15T07:25:01;3.00;99.90
26537;DHT22;14204;51.262;5.488;2024-01-15T07:27:27;3.00;99.90
26537;DHT22;14204;51.262;5.488;2024-01-15T07:29:52;3.00;99.90
26537;DHT22;14204;51.262;5.488;2024-01-15T07:32:18;3.00;99.90
26537;DHT22;14204;51.262;5.488;2024-01-15T07:34:44;3.00;99.90
26537;DHT22;14204;51.262;5.488;2024-01-15T07:37:09;3.00;99.90
26537;DHT22;14204;51.262;5.488;2024-01-15T07:39:35;3.00;99.90
26537;DHT22;14204;51.262;5.488;2024-01-15T07:42:01;3.00;99.90
26537;DHT22;14204;51.262;5.488;2024-01-15T07:44:27;3.10;99.90
26537;DHT22;14204;51.262;5.488;2024-01-15T07:46:53;3.00;99.90
26537;DHT22;14204;51.262;5.488;2024-01-15T07:49:18;3.10;99.90
26537;DHT22;14204;51.262;5.488;2024-01-15T07:51:44;3.10;99.90
26537;DHT22;14204;51.262;5.488;2024-01-15T07:54:10;3.10;99.90
26537;DHT22;14204;51.262;5.488;2024-01-15T07:56:56;3.10;99.90
26537;DHT22;14204;51.262;5.488;2024-01-15T07:59:22;3.10;99.90
26537;DHT22;14204;51.262;5.488;2024-01-15T08:01:48;3.00;99.90
26537;DHT22;14204;51.262;5.488;2024-01-15T08:04:14;3.10;99.90
26537;DHT22;14204;51.262;5.488;2024-01-15T08:06:40;3.10;99.90
26537;DHT22;14204;51.262;5.488;2024-01-15T08:09:06;3.10;99.90
26537;DHT22;14204;51.262;5.488;2024-01-15T08:11:32;3.10;99.90
26537;DHT22;14204;51.262;5.488;2024-01-15T08:13:57;3.10;99.90
26537;DHT22;14204;51.262;5.488;2024-01-15T08:16:23;3.10;99.90
26537;DHT22;14204;51.262;5.488;2024-01-15T08:18:50;3.10;99.90
26537;DHT22;14204;51.262;5.488;2024-01-15T08:21:16;3.10;99.90
26537;DHT22;14204;51.262;5.488;2024-01-15T08:23:41;3.10;99.90
26537;DHT22;14204;51.262;5.488;2024-01-15T08:26:07;3.10;99.90
26537;DHT22;14204;51.262;5.488;2024-01-15T08:28:34;3.10;99.90
26537;DHT22;14204;51.262;5.488;2024-01-15T08:31:00;3.10;99.90
26537;DHT22;14204;51.262;5.488;2024-01-15T08:33:25;3.20;99.90
26537;DHT22;14204;51.262;5.488;2024-01-15T08:35:51;3.20;99.90
26537;DHT22;14204;51.262;5.488;2024-01-15T08:38:19;3.20;99.90
26537;DHT22;14204;51.262;5.488;2024-01-15T08:40:45;3.10;99.90
26537;DHT22;14204;51.262;5.488;2024-01-15T08:43:11;3.20;99.90
26537;DHT22;14204;51.262;5.488;2024-01-15T08:45:36;3.20;99.90
26537;DHT22;14204;51.262;5.488;2024-01-15T08:48:02;3.30;99.90
26537;DHT22;14204;51.262;5.488;2024-01-15T08:50:29;3.30;99.90
26537;DHT22;14204;51.262;5.488;2024-01-15T08:52:55;3.30;99.90
26537;DHT22;14204;51.262;5.488;2024-01-15T08:55:21;3.10;99.90
26537;DHT22;14204;51.262;5.488;2024-01-15T08:57:48;3.10;99.90
26537;DHT22;14204;51.262;5.488;2024-01-15T09:00:14;3.10;99.90
26537;DHT22;14204;51.262;5.488;2024-01-15T09:02:40;3.20;99.90
26537;DHT22;14204;51.262;5.488;2024-01-15T09:05:06;3.20;99.90
26537;DHT22;14204;51.262;5.488;2024-01-15T09:07:32;3.30;99.90
26537;DHT22;14204;51.262;5.488;2024-01-15T09:09:58;3.30;99.90
26537;DHT22;14204;51.262;5.488;2024-01-15T09:12:25;3.30;99.90
26537;DHT22;14204;51.262;5.488;2024-01-15T09:14:51;3.40;99.90
26537;DHT22;14204;51.262;5.488;2024-01-15T09:17:19;3.40;99.90
26537;DHT22;14204;51.262;5.488;2024-01-15T09:19:45;3.40;99.90
26537;DHT22;14204;51.262;5.488;2024-01-15T09:22:12;3.30;99.90
26537;DHT22;14204;51.262;5.488;2024-01-15T09:24:42;3.40;99.90
26537;DHT22;14204;51.262;5.488;2024-01-15T09:27:08;3.30;99.90
26537;DHT22;14204;51.262;5.488;2024-01-15T09:29:34;3.40;99.90
26537;DHT22;14204;51.262;5.488;2024-01-15T09:32:02;3.50;99.90
26537;DHT22;14204;51.262;5.488;2024-01-15T09:34:29;3.50;99.90
26537;DHT22;14204;51.262;5.488;2024-01-15T09:36:55;3.60;99.90
26537;DHT22;14204;51.262;5.488;2024-01-15T09:39:21;3.60;99.90
26537;DHT22;14204;51.262;5.488;2024-01-15T09:41:49;3.70;99.90
26537;DHT22;14204;51.262;5.488;2024-01-15T09:44:16;3.70;99.90
26537;DHT22;14204;51.262;5.488;2024-01-15T09:46:42;3.70;99.90
26537;DHT22;14204;51.262;5.488;2024-01-15T09:49:10;3.60;99.90
26537;DHT22;14204;51.262;5.488;2024-01-15T09:51:36;3.60;99.90
26537;DHT22;14204;51.262;5.488;2024-01-15T09:54:02;3.60;99.90
26537;DHT22;14204;51.262;5.488;2024-01-15T09:56:30;3.50;99.90
26537;DHT22;14204;51.262;5.488;2024-01-15T09:58:57;3.40;99.90
26537;DHT22;14204;51.262;5.488;2024-01-15T10:01:23;3.50;99.90
26537;DHT22;14204;51.262;5.488;2024-01-15T10:03:50;3.40;99.90
26537;DHT22;14204;51.262;5.488;2024-01-15T10:06:17;3.40;99.90
26537;DHT22;14204;51.262;5.488;2024-01-15T10:08:48;3.40;99.90
26537;DHT22;14204;51.262;5.488;2024-01-15T10:11:14;3.50;99.90
26537;DHT22;14204;51.262;5.488;2024-01-15T10:13:40;3.60;99.90
26537;DHT22;14204;51.262;5.488;2024-01-15T10:16:06;3.70;99.90
26537;DHT22;14204;51.262;5.488;2024-01-15T10:18:32;3.70;99.90
26537;DHT22;14204;51.262;5.488;2024-01-15T10:20:58;3.70;99.90
26537;DHT22;14204;51.262;5.488;2024-01-15T10:23:24;3.80;99.90
26537;DHT22;14204;51.262;5.488;2024-01-15T10:25:50;3.70;99.90
26537;DHT22;14204;51.262;5.488;2024-01-15T10:28:19;3.70;99.90
26537;DHT22;14204;51.262;5.488;2024-01-15T10:30:45;3.70;99.90
26537;DHT22;14204;51.262;5.488;2024-01-15T10:33:11;3.70;99.90
26537;DHT22;14204;51.262;5.488;2024-01-15T10:35:38;3.80;99.90
26537;DHT22;14204;51.262;5.488;2024-01-15T10:38:05;3.60;99.90
26537;DHT22;14204;51.262;5.488;2024-01-15T10:40:32;3.70;99.90
26537;DHT22;14204;51.262;5.488;2024-01-15T10:42:57;3.70;99.90
26537;DHT22;14204;51.262;5.488;2024-01-15T10:45:24;3.80;99.90
26537;DHT22;14204;51.262;5.488;2024-01-15T10:47:50;3.80;99.90
26537;DHT22;14204;51.262;5.488;2024-01-15T10:50:16;3.70;99.90
26537;DHT22;14204;51.262;5.488;2024-01-15T10:52:42;3.60;99.90
26537;DHT22;14204;51.262;5.488;2024-01-15T10:55:09;3.40;99.90
26537;DHT22;14204;51.262;5.488;2024-01-15T10:57:36;3.40;99.90
26537;DHT22;14204;51.262;5.488;2024-01-15T11:00:04;3.50;99.90
26537;DHT22;14204;51.262;5.488;2024-01-15T11:02:36;3.40;99.90
26537;DHT22;14204;51.262;5.488;2024-01-15T11:05:02;3.40;99.90
26537;DHT22;14204;51.262;5.488;2024-01-15T11:07:30;3.50;99.90
26537;DHT22;14204;51.262;5.488;2024-01-15T11:09:56;3.50;99.90
26537;DHT22;14204;51.262;5.488;2024-01-15T11:12:24;3.60;99.90
26537;DHT22;14204;51.262;5.488;2024-01-15T11:14:50;3.50;99.90
26537;DHT22;14204;51.262;5.488;2024-01-15T11:17:17;3.50;99.90
26537;DHT22;14204;51.262;5.488;2024-01-15T11:19:45;3.60;99.90
26537;DHT22;14204;51.262;5.488;2024-01-15T11:25:04;3.60;99.90
26537;DHT22;14204;51.262;5.488;2024-01-15T11:27:42;3.60;99.90
26537;DHT22;14204;51.262;5.488;2024-01-15T11:30:08;3.50;99.90
26537;DHT22;14204;51.262;5.488;2024-01-15T11:32:36;3.50;99.90
26537;DHT22;14204;51.262;5.488;2024-01-15T11:35:02;3.50;99.90
26537;DHT22;14204;51.262;5.488;2024-01-15T11:40:18;3.50;99.90
26537;DHT22;14204;51.262;5.488;2024-01-15T11:42:45;3.50;99.90
26537;DHT22;14204;51.262;5.488;2024-01-15T11:45:11;3.60;99.90
26537;DHT22;14204;51.262;5.488;2024-01-15T11:50:14;3.70;99.90
26537;DHT22;14204;51.262;5.488;2024-01-15T11:52:48;3.60;99.90
26537;DHT22;14204;51.262;5.488;2024-01-15T11:55:28;3.70;99.90
26537;DHT22;14204;51.262;5.488;2024-01-15T11:57:55;3.70;99.90
26537;DHT22;14204;51.262;5.488;2024-01-15T12:00:23;3.60;99.90
26537;DHT22;14204;51.262;5.488;2024-01-15T12:02:50;3.70;99.90
26537;DHT22;14204;51.262;5.488;2024-01-15T12:05:20;3.80;99.90
26537;DHT22;14204;51.262;5.488;2024-01-15T12:07:46;3.90;99.90
26537;DHT22;14204;51.262;5.488;2024-01-15T12:10:18;3.90;99.90
26537;DHT22;14204;51.262;5.488;2024-01-15T12:13:03;3.80;99.90
26537;DHT22;14204;51.262;5.488;2024-01-15T12:15:31;3.70;99.90
26537;DHT22;14204;51.262;5.488;2024-01-15T12:17:59;3.70;99.90
26537;DHT22;14204;51.262;5.488;2024-01-15T12:20:26;3.70;99.90
26537;DHT22;14204;51.262;5.488;2024-01-15T12:22:52;3.60;99.90
26537;DHT22;14204;51.262;5.488;2024-01-15T12:25:18;3.50;99.90
26537;DHT22;14204;51.262;5.488;2024-01-15T12:27:44;3.40;99.90
26537;DHT22;14204;51.262;5.488;2024-01-15T12:30:13;3.30;99.90
26537;DHT22;14204;51.262;5.488;2024-01-15T12:32:42;3.30;99.90
26537;DHT22;14204;51.262;5.488;2024-01-15T12:35:10;3.40;99.90
26537;DHT22;14204;51.262;5.488;2024-01-15T12:37:36;3.50;99.90
26537;DHT22;14204;51.262;5.488;2024-01-15T12:40:06;3.40;99.90
26537;DHT22;14204;51.262;5.488;2024-01-15T12:42:33;3.50;99.90
26537;DHT22;14204;51.262;5.488;2024-01-15T12:45:00;3.50;99.90
26537;DHT22;14204;51.262;5.488;2024-01-15T12:47:26;3.60;99.90
26537;DHT22;14204;51.262;5.488;2024-01-15T12:49:52;3.70;99.90
26537;DHT22;14204;51.262;5.488;2024-01-15T12:52:21;3.70;99.90
26537;DHT22;14204;51.262;5.488;2024-01-15T12:54:48;3.80;99.90
26537;DHT22;14204;51.262;5.488;2024-01-15T12:57:14;3.70;99.90
26537;DHT22;14204;51.262;5.488;2024-01-15T12:59:39;3.80;99.90
26537;DHT22;14204;51.262;5.488;2024-01-15T13:02:05;3.80;99.90
26537;DHT22;14204;51.262;5.488;2024-01-15T13:04:31;3.80;99.90
26537;DHT22;14204;51.262;5.488;2024-01-15T13:06:57;3.80;99.90
26537;DHT22;14204;51.262;5.488;2024-01-15T13:09:22;3.80;99.90
26537;DHT22;14204;51.262;5.488;2024-01-15T13:11:48;3.80;99.90
26537;DHT22;14204;51.262;5.488;2024-01-15T13:14:14;3.80;99.90
26537;DHT22;14204;51.262;5.488;2024-01-15T13:16:40;3.70;99.90
26537;DHT22;14204;51.262;5.488;2024-01-15T13:19:10;3.60;99.90
26537;DHT22;14204;51.262;5.488;2024-01-15T13:21:42;3.60;99.90
26537;DHT22;14204;51.262;5.488;2024-01-15T13:24:08;3.60;99.90
26537;DHT22;14204;51.262;5.488;2024-01-15T13:26:35;3.60;99.90
26537;DHT22;14204;51.262;5.488;2024-01-15T13:29:02;3.70;99.90
26537;DHT22;14204;51.262;5.488;2024-01-15T13:31:32;3.70;99.90
26537;DHT22;14204;51.262;5.488;2024-01-15T13:33:59;3.70;99.90
26537;DHT22;14204;51.262;5.488;2024-01-15T13:36:25;3.70;99.90
26537;DHT22;14204;51.262;5.488;2024-01-15T13:38:51;3.70;99.90
26537;DHT22;14204;51.262;5.488;2024-01-15T13:41:18;3.80;99.90
26537;DHT22;14204;51.262;5.488;2024-01-15T13:43:51;3.80;99.90
26537;DHT22;14204;51.262;5.488;2024-01-15T13:46:19;3.80;99.90
26537;DHT22;14204;51.262;5.488;2024-01-15T13:48:45;3.90;99.90
26537;DHT22;14204;51.262;5.488;2024-01-15T13:51:11;4.00;99.90
26537;DHT22;14204;51.262;5.488;2024-01-15T13:53:40;3.90;99.90
26537;DHT22;14204;51.262;5.488;2024-01-15T13:56:06;3.80;99.90
26537;DHT22;14204;51.262;5.488;2024-01-15T13:58:33;3.70;99.90
26537;DHT22;14204;51.262;5.488;2024-01-15T14:00:59;3.50;99.90
26537;DHT22;14204;51.262;5.488;2024-01-15T14:03:25;3.60;99.90
26537;DHT22;14204;51.262;5.488;2024-01-15T14:05:52;3.60;99.90
26537;DHT22;14204;51.262;5.488;2024-01-15T14:08:18;3.70;99.90
26537;DHT22;14204;51.262;5.488;2024-01-15T14:10:44;3.80;99.90
26537;DHT22;14204;51.262;5.488;2024-01-15T14:13:10;3.80;99.90
26537;DHT22;14204;51.262;5.488;2024-01-15T14:15:36;3.70;99.90
26537;DHT22;14204;51.262;5.488;2024-01-15T14:18:02;3.80;99.90
26537;DHT22;14204;51.262;5.488;2024-01-15T14:20:28;3.80;99.90
26537;DHT22;14204;51.262;5.488;2024-01-15T14:22:54;3.80;99.90
26537;DHT22;14204;51.262;5.488;2024-01-15T14:25:23;3.80;99.90
26537;DHT22;14204;51.262;5.488;2024-01-15T14:27:50;3.80;99.90
26537;DHT22;14204;51.262;5.488;2024-01-15T14:30:16;3.70;99.90
26537;DHT22;14204;51.262;5.488;2024-01-15T14:32:45;3.80;99.90
26537;DHT22;14204;51.262;5.488;2024-01-15T14:35:10;3.70;99.90
26537;DHT22;14204;51.262;5.488;2024-01-15T14:37:40;3.70;99.90
26537;DHT22;14204;51.262;5.488;2024-01-15T14:40:09;3.60;99.90
26537;DHT22;14204;51.262;5.488;2024-01-15T14:42:36;3.70;99.90
26537;DHT22;14204;51.262;5.488;2024-01-15T14:45:03;3.70;99.90
26537;DHT22;14204;51.262;5.488;2024-01-15T14:47:31;3.70;99.90
26537;DHT22;14204;51.262;5.488;2024-01-15T14:49:57;3.70;99.90
26537;DHT22;14204;51.262;5.488;2024-01-15T14:52:23;3.70;99.90
26537;DHT22;14204;51.262;5.488;2024-01-15T14:54:49;3.70;99.90
26537;DHT22;14204;51.262;5.488;2024-01-15T14:57:15;3.70;99.90
26537;DHT22;14204;51.262;5.488;2024-01-15T14:59:41;3.70;99.90
26537;DHT22;14204;51.262;5.488;2024-01-15T15:02:06;3.70;99.90
26537;DHT22;14204;51.262;5.488;2024-01-15T15:04:32;3.80;99.90
26537;DHT22;14204;51.262;5.488;2024-01-15T15:06:58;3.80;99.90
26537;DHT22;14204;51.262;5.488;2024-01-15T15:09:24;3.90;99.90
26537;DHT22;14204;51.262;5.488;2024-01-15T15:11:50;3.90;99.90
26537;DHT22;14204;51.262;5.488;2024-01-15T15:14:17;3.80;99.90
26537;DHT22;14204;51.262;5.488;2024-01-15T15:16:43;3.80;99.90
26537;DHT22;14204;51.262;5.488;2024-01-15T15:19:09;3.80;99.90
26537;DHT22;14204;51.262;5.488;2024-01-15T15:21:34;3.80;99.90
26537;DHT22;14204;51.262;5.488;2024-01-15T15:24:00;3.70;99.90
26537;DHT22;14204;51.262;5.488;2024-01-15T15:26:27;3.80;99.90
26537;DHT22;14204;51.262;5.488;2024-01-15T15:28:52;3.70;99.90
26537;DHT22;14204;51.262;5.488;2024-01-15T15:31:19;3.70;99.90
26537;DHT22;14204;51.262;5.488;2024-01-15T15:33:45;3.70;99.90
26537;DHT22;14204;51.262;5.488;2024-01-15T15:36:11;3.60;99.90
26537;DHT22;14204;51.262;5.488;2024-01-15T15:38:37;3.60;99.90
26537;DHT22;14204;51.262;5.488;2024-01-15T15:41:03;3.60;99.90
26537;DHT22;14204;51.262;5.488;2024-01-15T15:43:29;3.50;99.90
26537;DHT22;14204;51.262;5.488;2024-01-15T15:45:56;3.50;99.90
26537;DHT22;14204;51.262;5.488;2024-01-15T15:48:25;3.40;99.90